Time;durP1;ratioP1;P1;durP2;ratioP2;P2;SDS_P1;SDS_P2;PMS_P1;PMS_P2;Temp;Humidity;BMP_temperature;BMP_pressure;BME280_temperature;BME280_humidity;BME280_pressure;Samples;Min_cycle;Max_cycle;Signal;HPM_P1;HPM_P2
2021/08/22 01:21:31;;;;;;;32.15;30.60;;;;;;;;;;6045813;22;20059;-86
2021/08/22 01:24:02;;;;;;;19.42;18.30;;;;;;;;;;5017305;28;20465;-85
2021/08/22 01:26:29;;;;;;;36.78;35.03;;;;;;;;;;5005194;28;20123;-85
2021/08/22 01:28:56;;;;;;;43.03;41.03;;;;;;;;;;5049356;28;20557;-86
2021/08/22 01:31:26;;;;;;;18.63;17.52;;;;;;;;;;5027058;28;20040;-86
2021/08/22 01:33:53;;;;;;;20.95;19.90;;;;;;;;;;5008058;28;20060;-85
2021/08/22 01:36:20;;;;;;;27.73;26.33;;;;;;;;;;5013827;28;20051;-85
2021/08/22 01:38:46;;;;;;;25.27;24.00;;;;;;;;;;5013616;28;20103;-85
2021/08/22 01:41:12;;;;;;;19.67;18.48;;;;;;;;;;5008346;28;20507;-86
2021/08/22 01:43:39;;;;;;;26.48;25.17;;;;;;;;;;5012474;28;20033;-85
2021/08/22 01:46:06;;;;;;;23.20;21.90;;;;;;;;;;5027038;28;20535;-85
2021/08/22 01:48:32;;;;;;;35.55;33.95;;;;;;;;;;5010843;28;20033;-85
2021/08/22 01:50:59;;;;;;;28.33;26.90;;;;;;;;;;4991173;28;20044;-85
2021/08/22 01:53:25;;;;;;;24.55;23.25;;;;;;;;;;5024592;28;20033;-86
2021/08/22 01:55:53;;;;;;;32.60;31.00;;;;;;;;;;5015279;28;20022;-87
2021/08/22 01:58:24;;;;;;;24.48;23.27;;;;;;;;;;5033286;28;20040;-87
2021/08/22 02:00:51;;;;;;;30.08;28.65;;;;;;;;;;5007974;28;20040;-86
2021/08/22 02:03:38;;;;;;;41.60;39.70;;;;;;;;;;5010513;28;20120;-86
2021/08/22 02:06:20;;;;;;;44.78;42.97;;;;;;;;;;5063624;28;20033;-87
2021/08/22 02:08:45;;;;;;;21.85;20.70;;;;;;;;;;5043054;28;20040;-86
2021/08/22 02:11:14;;;;;;;47.22;45.35;;;;;;;;;;5015812;28;20487;-87
2021/08/22 02:13:42;;;;;;;42.72;40.90;;;;;;;;;;5029409;28;20534;-86
2021/08/22 02:16:10;;;;;;;35.67;34.08;;;;;;;;;;5018566;28;20033;-87
2021/08/22 02:18:37;;;;;;;43.75;41.88;;;;;;;;;;5016801;28;20083;-87
2021/08/22 02:21:02;;;;;;;41.00;39.30;;;;;;;;;;5015215;28;20076;-87
2021/08/22 02:23:29;;;;;;;42.45;40.53;;;;;;;;;;5027520;28;20082;-87
2021/08/22 02:25:56;;;;;;;38.65;37.00;;;;;;;;;;4983450;28;20038;-87
2021/08/22 02:28:22;;;;;;;41.55;39.70;;;;;;;;;;4999884;28;20110;-86
2021/08/22 02:30:49;;;;;;;37.15;35.40;;;;;;;;;;4983642;28;20073;-86
2021/08/22 02:33:16;;;;;;;45.40;43.55;;;;;;;;;;4983504;28;20580;-87
2021/08/22 02:35:42;;;;;;;53.17;51.08;;;;;;;;;;4999368;28;20033;-87
2021/08/22 02:38:08;;;;;;;40.17;38.28;;;;;;;;;;4998254;28;20052;-87
2021/08/22 02:40:34;;;;;;;44.08;42.22;;;;;;;;;;4983632;28;20059;-87
2021/08/22 02:43:00;;;;;;;34.80;33.33;;;;;;;;;;5005512;28;20056;-86
2021/08/22 02:45:26;;;;;;;42.63;40.92;;;;;;;;;;5038826;28;20187;-87
2021/08/22 02:47:57;;;;;;;45.15;43.10;;;;;;;;;;5055683;28;20038;-87
2021/08/22 02:50:25;;;;;;;55.53;53.13;;;;;;;;;;5055788;28;20402;-87
2021/08/22 02:52:51;;;;;;;34.58;33.03;;;;;;;;;;5038433;28;20055;-86
2021/08/22 02:55:17;;;;;;;50.05;47.70;;;;;;;;;;5026139;28;20036;-87
2021/08/22 02:57:43;;;;;;;41.78;39.97;;;;;;;;;;5035174;28;20056;-87
2021/08/22 03:00:09;;;;;;;42.00;40.20;;;;;;;;;;5035753;28;20066;-87
2021/08/22 03:02:34;;;;;;;42.65;40.75;;;;;;;;;;5002690;28;20502;-87
2021/08/22 03:05:00;;;;;;;40.38;38.67;;;;;;;;;;5018525;28;20049;-86
2021/08/22 03:07:26;;;;;;;23.33;22.10;;;;;;;;;;5018784;28;20107;-87
2021/08/22 03:09:52;;;;;;;40.50;38.80;;;;;;;;;;5018899;28;20041;-87
2021/08/22 03:12:18;;;;;;;34.83;33.08;;;;;;;;;;5017488;28;20067;-86
2021/08/22 03:14:46;;;;;;;29.33;28.10;;;;;;;;;;5018613;28;20029;-86
2021/08/22 03:17:11;;;;;;;30.88;29.50;;;;;;;;;;5001518;28;20044;-86
2021/08/22 03:19:37;;;;;;;23.00;21.90;;;;;;;;;;5002002;28;20032;-87
2021/08/22 03:22:04;;;;;;;39.35;37.63;;;;;;;;;;5001759;28;20380;-86
2021/08/22 03:24:30;;;;;;;32.45;30.83;;;;;;;;;;5018224;28;20039;-87
2021/08/22 03:26:57;;;;;;;34.08;32.42;;;;;;;;;;5018213;28;20029;-86
2021/08/22 03:29:22;;;;;;;25.23;23.88;;;;;;;;;;5018319;28;20029;-87
2021/08/22 03:31:49;;;;;;;41.80;40.05;;;;;;;;;;5018410;28;20091;-86
2021/08/22 03:34:17;;;;;;;46.03;44.10;;;;;;;;;;5034415;28;20033;-86
2021/08/22 03:36:43;;;;;;;44.40;42.10;;;;;;;;;;5017878;28;20028;-86
2021/08/22 03:39:09;;;;;;;33.08;31.60;;;;;;;;;;5018146;28;20042;-87
2021/08/22 03:41:35;;;;;;;27.48;26.17;;;;;;;;;;5018185;28;20064;-86
2021/08/22 03:44:01;;;;;;;34.45;32.92;;;;;;;;;;5001736;28;20051;-87
2021/08/22 03:46:26;;;;;;;20.13;19.02;;;;;;;;;;5001694;28;20040;-87
2021/08/22 03:48:54;;;;;;;29.83;28.52;;;;;;;;;;5001429;28;20047;-86
2021/08/22 03:51:23;;;;;;;42.25;40.58;;;;;;;;;;5017897;28;20048;-87
2021/08/22 03:53:50;;;;;;;24.17;23.00;;;;;;;;;;5035720;28;20098;-86
2021/08/22 03:56:16;;;;;;;27.25;26.00;;;;;;;;;;5017925;28;20048;-86
2021/08/22 03:58:42;;;;;;;31.17;29.73;;;;;;;;;;5034284;28;20108;-86
2021/08/22 04:01:07;;;;;;;7.35;6.65;;;;;;;;;;5034039;28;20052;-87
2021/08/22 04:03:37;;;;;;;39.17;37.58;;;;;;;;;;5017467;28;20518;-87
2021/08/22 04:06:02;;;;;;;35.53;34.03;;;;;;;;;;5018324;28;20041;-87
2021/08/22 04:08:28;;;;;;;45.75;43.97;;;;;;;;;;5001334;28;20071;-83
2021/08/22 04:10:53;;;;;;;38.42;36.83;;;;;;;;;;5017217;28;20037;-82
2021/08/22 04:13:19;;;;;;;18.83;17.83;;;;;;;;;;5000580;28;20035;-82
2021/08/22 04:15:45;;;;;;;33.03;31.63;;;;;;;;;;5033568;28;20117;-82
2021/08/22 04:18:10;;;;;;;48.00;46.13;;;;;;;;;;4997428;28;20034;-82
2021/08/22 04:20:36;;;;;;;38.80;37.03;;;;;;;;;;5029758;28;20116;-82
2021/08/22 04:23:01;;;;;;;40.78;39.08;;;;;;;;;;4997235;28;20037;-82
2021/08/22 04:25:27;;;;;;;38.28;36.65;;;;;;;;;;5034763;28;20038;-82
2021/08/22 04:27:52;;;;;;;52.85;50.70;;;;;;;;;;4999929;28;20067;-82
2021/08/22 04:30:18;;;;;;;35.88;34.20;;;;;;;;;;5033501;28;20091;-81
2021/08/22 04:32:43;;;;;;;41.50;39.70;;;;;;;;;;5013783;28;20025;-82
2021/08/22 04:35:09;;;;;;;34.67;33.20;;;;;;;;;;5013203;28;20125;-82
2021/08/22 04:37:34;;;;;;;33.50;31.98;;;;;;;;;;4997365;28;20041;-82
2021/08/22 04:40:00;;;;;;;27.15;25.85;;;;;;;;;;5013692;28;20125;-82
2021/08/22 04:42:26;;;;;;;33.35;31.92;;;;;;;;;;5016614;28;20033;-82
2021/08/22 04:44:51;;;;;;;22.98;21.90;;;;;;;;;;5033535;28;20108;-82
2021/08/22 04:47:17;;;;;;;40.47;38.83;;;;;;;;;;5033221;28;20116;-82
2021/08/22 04:49:42;;;;;;;36.17;34.67;;;;;;;;;;5033102;28;20086;-81
2021/08/22 04:52:07;;;;;;;31.73;30.40;;;;;;;;;;5016741;28;20033;-82
2021/08/22 04:54:33;;;;;;;6.60;5.30;;;;;;;;;;5033017;28;20037;-82
2021/08/22 04:56:59;;;;;;;32.70;31.40;;;;;;;;;;4999977;28;20029;-82
2021/08/22 04:59:24;;;;;;;34.70;33.15;;;;;;;;;;5032635;28;20119;-81
2021/08/22 05:01:50;;;;;;;35.63;34.13;;;;;;;;;;5018956;28;20059;-82
2021/08/22 05:04:15;;;;;;;31.80;30.40;;;;;;;;;;5036609;28;20029;-82
2021/08/22 05:06:42;;;;;;;49.97;47.92;;;;;;;;;;5020086;28;20070;-82
2021/08/22 05:09:07;;;;;;;41.20;39.55;;;;;;;;;;5019692;28;20036;-82
2021/08/22 05:11:34;;;;;;;37.83;36.33;;;;;;;;;;5036440;28;20450;-82
2021/08/22 05:13:59;;;;;;;31.98;30.65;;;;;;;;;;5020080;28;20025;-82
2021/08/22 05:16:25;;;;;;;33.38;31.77;;;;;;;;;;5019960;28;20047;-82
2021/08/22 05:18:50;;;;;;;34.75;33.15;;;;;;;;;;5035141;28;20034;-82
2021/08/22 05:21:15;;;;;;;34.30;32.83;;;;;;;;;;4999698;28;20037;-82
2021/08/22 05:23:41;;;;;;;38.95;37.33;;;;;;;;;;5033037;28;20396;-82
2021/08/22 05:26:06;;;;;;;38.67;36.90;;;;;;;;;;5017688;28;20427;-82
2021/08/22 05:28:32;;;;;;;48.50;46.47;;;;;;;;;;5019807;28;20079;-82
2021/08/22 05:30:58;;;;;;;39.90;38.25;;;;;;;;;;5003908;28;20078;-82
2021/08/22 05:33:23;;;;;;;42.03;40.28;;;;;;;;;;5036280;28;20044;-81
2021/08/22 05:35:50;;;;;;;42.85;41.17;;;;;;;;;;5019548;28;20224;-84
2021/08/22 05:38:15;;;;;;;40.42;38.70;;;;;;;;;;5036340;28;20040;-83
2021/08/22 05:40:40;;;;;;;30.77;29.48;;;;;;;;;;5018782;28;20037;-83
2021/08/22 05:43:06;;;;;;;38.22;36.67;;;;;;;;;;5002906;28;20041;-83
2021/08/22 05:45:31;;;;;;;26.20;24.80;;;;;;;;;;5020023;28;20063;-83
2021/08/22 05:47:58;;;;;;;34.25;32.85;;;;;;;;;;5032343;28;20118;-83
2021/08/22 05:50:23;;;;;;;39.17;37.63;;;;;;;;;;4999586;28;20039;-83
2021/08/22 05:52:49;;;;;;;56.05;53.95;;;;;;;;;;4999659;28;20038;-82
2021/08/22 05:55:15;;;;;;;38.08;36.58;;;;;;;;;;4995229;28;20411;-82
2021/08/22 05:57:40;;;;;;;29.80;28.52;;;;;;;;;;5002859;28;20029;-83
2021/08/22 06:00:06;;;;;;;44.25;42.55;;;;;;;;;;5018183;28;20399;-83
2021/08/22 06:02:32;;;;;;;31.42;30.17;;;;;;;;;;5016902;28;20098;-83
2021/08/22 06:04:57;;;;;;;39.47;37.97;;;;;;;;;;5035831;28;20029;-83
2021/08/22 06:07:23;;;;;;;37.03;35.53;;;;;;;;;;5035110;28;20541;-84
2021/08/22 06:09:50;;;;;;;39.20;37.50;;;;;;;;;;5019291;28;20055;-84
2021/08/22 06:12:16;;;;;;;48.70;46.70;;;;;;;;;;4998398;28;20091;-84
2021/08/22 06:14:41;;;;;;;33.00;31.63;;;;;;;;;;4982642;28;20025;-82
2021/08/22 06:17:07;;;;;;;40.65;38.95;;;;;;;;;;5004945;28;20072;-82
2021/08/22 06:19:32;;;;;;;35.80;34.40;;;;;;;;;;5035245;28;20037;-82
2021/08/22 06:21:58;;;;;;;45.65;43.92;;;;;;;;;;5016572;28;20419;-82
2021/08/22 06:24:24;;;;;;;58.22;56.00;;;;;;;;;;5033952;28;20791;-82
2021/08/22 06:26:49;;;;;;;44.15;42.35;;;;;;;;;;5018567;28;20058;-82
2021/08/22 06:29:15;;;;;;;50.53;48.58;;;;;;;;;;4998274;28;20103;-82
2021/08/22 06:31:41;;;;;;;41.70;40.03;;;;;;;;;;5015461;28;20033;-81
2021/08/22 06:34:10;;;;;;;40.97;39.25;;;;;;;;;;5014885;28;20252;-82
2021/08/22 06:36:39;;;;;;;37.40;35.80;;;;;;;;;;5016130;28;20043;-82
2021/08/22 06:39:08;;;;;;;35.67;34.33;;;;;;;;;;5014921;28;20228;-82
2021/08/22 06:41:33;;;;;;;43.33;41.60;;;;;;;;;;5003857;28;20042;-82
2021/08/22 06:43:59;;;;;;;36.83;35.38;;;;;;;;;;5036209;28;20032;-82
2021/08/22 06:46:25;;;;;;;35.03;33.58;;;;;;;;;;5038152;28;20051;-82
2021/08/22 06:48:50;;;;;;;39.25;37.70;;;;;;;;;;5039029;28;20029;-82
2021/08/22 06:51:16;;;;;;;59.35;56.97;;;;;;;;;;5034186;28;20041;-83
2021/08/22 06:53:44;;;;;;;35.88;34.40;;;;;;;;;;5034342;28;20463;-83
2021/08/22 06:56:09;;;;;;;31.25;29.98;;;;;;;;;;5034521;28;20098;-82
2021/08/22 06:58:35;;;;;;;44.10;42.40;;;;;;;;;;5017607;28;20056;-82
2021/08/22 07:01:00;;;;;;;50.83;48.95;;;;;;;;;;5017882;28;20040;-83
2021/08/22 07:03:26;;;;;;;30.70;29.35;;;;;;;;;;5034593;28;20037;-82
2021/08/22 07:05:51;;;;;;;37.13;35.70;;;;;;;;;;5017529;28;20037;-83
2021/08/22 07:08:17;;;;;;;33.17;31.77;;;;;;;;;;5017967;28;20029;-82
2021/08/22 07:10:42;;;;;;;42.30;40.60;;;;;;;;;;5034364;28;20105;-82
2021/08/22 07:13:08;;;;;;;37.88;36.28;;;;;;;;;;5033883;28;20033;-82
2021/08/22 07:15:34;;;;;;;39.65;38.15;;;;;;;;;;5034075;28;20037;-82
2021/08/22 07:18:00;;;;;;;44.83;43.13;;;;;;;;;;5046992;28;20033;-83
2021/08/22 07:20:25;;;;;;;44.90;43.20;;;;;;;;;;5037904;28;20048;-83
2021/08/22 07:22:51;;;;;;;36.15;34.65;;;;;;;;;;5037176;28;20045;-83
2021/08/22 07:25:17;;;;;;;32.20;30.85;;;;;;;;;;5012997;28;20392;-82
2021/08/22 07:27:42;;;;;;;27.85;26.55;;;;;;;;;;4998589;28;20037;-83
2021/08/22 07:30:08;;;;;;;42.03;40.20;;;;;;;;;;5032030;28;20576;-84
2021/08/22 07:32:34;;;;;;;29.48;28.10;;;;;;;;;;5000792;28;20060;-87
2021/08/22 07:35:00;;;;;;;38.45;36.92;;;;;;;;;;5017791;28;20033;-88
2021/08/22 07:37:26;;;;;;;44.28;42.17;;;;;;;;;;5017730;28;20055;-88
2021/08/22 07:39:55;;;;;;;19.35;18.30;;;;;;;;;;5018206;28;20099;-87
2021/08/22 07:42:20;;;;;;;41.90;39.95;;;;;;;;;;5050825;28;20117;-87
2021/08/22 07:44:46;;;;;;;45.72;43.80;;;;;;;;;;5017699;28;20045;-85
2021/08/22 07:47:11;;;;;;;52.40;50.10;;;;;;;;;;5017268;28;20037;-84
2021/08/22 07:49:37;;;;;;;53.20;51.10;;;;;;;;;;5017180;28;20072;-84
2021/08/22 07:52:02;;;;;;;42.70;40.90;;;;;;;;;;5033565;28;20534;-84
2021/08/22 07:54:28;;;;;;;38.15;36.45;;;;;;;;;;5016748;28;20523;-82
2021/08/22 07:56:53;;;;;;;52.67;50.47;;;;;;;;;;5033176;28;20082;-82
2021/08/22 07:59:19;;;;;;;30.00;28.52;;;;;;;;;;5010119;28;20112;-82
2021/08/22 08:01:44;;;;;;;38.10;36.28;;;;;;;;;;5028380;28;20060;-84
2021/08/22 08:04:10;;;;;;;49.60;47.40;;;;;;;;;;5013627;28;20025;-84
2021/08/22 08:06:35;;;;;;;37.83;36.20;;;;;;;;;;5000358;28;20128;-84
2021/08/22 08:09:01;;;;;;;38.22;36.28;;;;;;;;;;5033805;28;20037;-84
2021/08/22 08:11:26;;;;;;;42.90;41.13;;;;;;;;;;5016781;28;20029;-84
2021/08/22 08:13:52;;;;;;;51.38;49.05;;;;;;;;;;5029986;28;20526;-83
2021/08/22 08:16:18;;;;;;;42.78;40.83;;;;;;;;;;5022472;28;20175;-82
2021/08/22 08:18:43;;;;;;;38.63;36.80;;;;;;;;;;5047523;28;20043;-81
2021/08/22 08:21:09;;;;;;;23.02;21.63;;;;;;;;;;5030466;28;20411;-80
2021/08/22 08:23:34;;;;;;;41.35;39.65;;;;;;;;;;5013671;28;20038;-81
2021/08/22 08:26:00;;;;;;;14.10;13.15;;;;;;;;;;5027375;28;20059;-81
2021/08/22 08:28:25;;;;;;;28.30;26.83;;;;;;;;;;5016679;28;20041;-81
2021/08/22 08:30:51;;;;;;;13.15;12.38;;;;;;;;;;5031995;28;20036;-81
2021/08/22 08:33:16;;;;;;;26.08;24.92;;;;;;;;;;5030882;28;20120;-81
2021/08/22 08:35:42;;;;;;;6.80;6.22;;;;;;;;;;5031952;28;20055;-81
2021/08/22 08:38:07;;;;;;;28.70;27.45;;;;;;;;;;5036826;28;20033;-81
2021/08/22 08:40:34;;;;;;;28.77;27.52;;;;;;;;;;5036967;28;20043;-81
2021/08/22 08:43:00;;;;;;;31.65;29.95;;;;;;;;;;5045043;28;20040;-81
2021/08/22 08:45:46;;;;;;;16.30;15.25;;;;;;;;;;5053833;28;20067;-81
2021/08/22 08:48:15;;;;;;;23.52;22.20;;;;;;;;;;5045304;28;20041;-81
2021/08/22 08:50:48;;;;;;;27.27;25.88;;;;;;;;;;5020174;28;20044;-81
2021/08/22 08:53:40;;;;;;;10.18;9.30;;;;;;;;;;5037957;28;20049;-81
2021/08/22 08:56:36;;;;;;;23.63;22.20;;;;;;;;;;5041788;28;20053;-81
2021/08/22 08:59:01;;;;;;;24.13;22.58;;;;;;;;;;5036675;28;20119;-81
2021/08/22 09:01:27;;;;;;;11.82;8.45;;;;;;;;;;5036270;28;20036;-81
2021/08/22 09:04:12;;;;;;;42.75;40.75;;;;;;;;;;5036397;28;20112;-81
2021/08/22 09:06:57;;;;;;;17.20;16.20;;;;;;;;;;5069311;28;20055;-82
2021/08/22 09:10:00;;;;;;;24.65;23.42;;;;;;;;;;5052726;28;20040;-81
2021/08/22 09:12:50;;;;;;;27.13;25.63;;;;;;;;;;5052681;28;20029;-81
2021/08/22 09:15:43;;;;;;;19.83;18.73;;;;;;;;;;5052983;28;20041;-81
2021/08/22 09:18:36;;;;;;;18.38;17.35;;;;;;;;;;5066276;28;20051;-81
2021/08/22 09:21:37;;;;;;;14.43;13.43;;;;;;;;;;5033615;28;20037;-81
2021/08/22 09:24:24;;;;;;;9.63;8.57;;;;;;;;;;5049251;28;20068;-80
2021/08/22 09:27:27;;;;;;;27.75;26.45;;;;;;;;;;5056275;28;20395;-81
2021/08/22 09:30:30;;;;;;;19.60;18.30;;;;;;;;;;5034326;28;20045;-81
2021/08/22 09:33:33;;;;;;;24.88;23.65;;;;;;;;;;5049363;28;20044;-81
2021/08/22 09:36:23;;;;;;;26.42;25.00;;;;;;;;;;5053541;28;20074;-81
2021/08/22 09:39:26;;;;;;;21.30;20.05;;;;;;;;;;5035825;28;20037;-81
2021/08/22 09:42:23;;;;;;;11.82;10.90;;;;;;;;;;5069182;28;20545;-81
2021/08/22 09:45:26;;;;;;;13.05;12.20;;;;;;;;;;5035248;28;20049;-81
2021/08/22 09:48:16;;;;;;;9.20;8.50;;;;;;;;;;5061434;28;20033;-81
2021/08/22 09:51:19;;;;;;;9.57;8.77;;;;;;;;;;5032639;28;20045;-81
2021/08/22 09:54:15;;;;;;;13.95;13.00;;;;;;;;;;5033292;28;20566;-81
2021/08/22 09:56:56;;;;;;;6.72;6.13;;;;;;;;;;5035565;28;20090;-81
2021/08/22 10:00:00;;;;;;;12.60;11.60;;;;;;;;;;5032642;28;20037;-80
2021/08/22 10:02:28;;;;;;;10.23;9.45;;;;;;;;;;5032483;28;20041;-81
2021/08/22 10:05:06;;;;;;;11.82;11.00;;;;;;;;;;5031936;28;20044;-81
2021/08/22 10:08:06;;;;;;;10.65;9.93;;;;;;;;;;5045880;28;20457;-81
2021/08/22 10:10:39;;;;;;;7.97;7.28;;;;;;;;;;5039105;28;20052;-81
2021/08/22 10:13:05;;;;;;;10.55;9.68;;;;;;;;;;5035306;28;20041;-81
2021/08/22 10:15:30;;;;;;;6.05;5.40;;;;;;;;;;5018898;28;20029;-80
2021/08/22 10:17:56;;;;;;;9.40;8.45;;;;;;;;;;5034575;28;20415;-80
2021/08/22 10:20:38;;;;;;;7.43;6.72;;;;;;;;;;5035330;28;20032;-81
2021/08/22 10:23:03;;;;;;;;;;;;;;;;;;5018088;28;20531;-80
2021/08/22 10:25:49;;;;;;;7.50;4.65;;;;;;;;;;5044460;28;19917;-81
2021/08/22 10:28:15;;;;;;;6.47;4.55;;;;;;;;;;5015392;28;20029;-81
2021/08/22 10:30:44;;;;;;;5.53;4.40;;;;;;;;;;4999214;28;20044;-81
2021/08/22 10:33:10;;;;;;;7.38;5.22;;;;;;;;;;4998928;28;20071;-81
2021/08/22 10:35:36;;;;;;;7.95;7.15;;;;;;;;;;5027131;28;20041;-81
2021/08/22 10:38:20;;;;;;;7.97;5.43;;;;;;;;;;5031861;28;20440;-81
2021/08/22 10:40:46;;;;;;;7.50;4.78;;;;;;;;;;5047887;28;20056;-81
2021/08/22 10:43:11;;;;;;;6.35;5.10;;;;;;;;;;5031011;28;20032;-82
2021/08/22 10:45:40;;;;;;;7.45;3.47;;;;;;;;;;5071497;28;20044;-84
2021/08/22 10:48:09;;;;;;;7.05;4.43;;;;;;;;;;5078464;28;20041;-83
2021/08/22 10:50:56;;;;;;;9.10;3.83;;;;;;;;;;5034403;28;20059;-84
2021/08/22 10:53:25;;;;;;;6.78;4.00;;;;;;;;;;5050569;28;20041;-83
2021/08/22 10:55:51;;;;;;;5.75;2.95;;;;;;;;;;5017504;28;20094;-83
2021/08/22 10:58:16;;;;;;;9.68;3.70;;;;;;;;;;5033785;28;20041;-84
2021/08/22 11:00:42;;;;;;;6.68;3.92;;;;;;;;;;5017960;28;20036;-84
2021/08/22 11:03:16;;;;;;;7.15;3.15;;;;;;;;;;5017734;28;20503;-83
2021/08/22 11:05:42;;;;;;;5.20;3.08;;;;;;;;;;5050178;28;20041;-84
2021/08/22 11:08:14;;;;;;;8.30;3.17;;;;;;;;;;5050441;28;20037;-84
2021/08/22 11:11:05;;;;;;;6.22;2.90;;;;;;;;;;5034203;28;20040;-84
2021/08/22 11:13:41;;;;;;;8.45;2.75;;;;;;;;;;5017269;28;20041;-84
2021/08/22 11:16:08;;;;;;;6.25;2.88;;;;;;;;;;5018051;28;20041;-84
2021/08/22 11:18:35;;;;;;;8.23;3.55;;;;;;;;;;5017772;28;20067;-85
2021/08/22 11:21:00;;;;;;;8.05;3.83;;;;;;;;;;5050468;28;20041;-85
2021/08/22 11:23:26;;;;;;;6.20;5.28;;;;;;;;;;5012744;28;20041;-84
2021/08/22 11:26:20;;;;;;;5.30;3.20;;;;;;;;;;5016011;28;20033;-85
2021/08/22 11:28:56;;;;;;;5.80;2.85;;;;;;;;;;5034085;28;20037;-84
2021/08/22 11:31:22;;;;;;;5.80;5.15;;;;;;;;;;5055120;28;20052;-85
2021/08/22 11:33:48;;;;;;;5.55;3.83;;;;;;;;;;5009167;28;20510;-83
2021/08/22 11:36:14;;;;;;;4.28;3.40;;;;;;;;;;5004993;28;20033;-84
2021/08/22 11:38:40;;;;;;;10.50;6.57;;;;;;;;;;5013523;28;20495;-83
2021/08/22 11:41:05;;;;;;;13.10;7.68;;;;;;;;;;5012770;28;20067;-83
2021/08/22 11:43:31;;;;;;;17.00;11.68;;;;;;;;;;5013636;28;20063;-83
2021/08/22 11:45:57;;;;;;;12.13;8.85;;;;;;;;;;5024482;28;20042;-82
2021/08/22 11:48:24;;;;;;;12.40;8.55;;;;;;;;;;5041685;28;20094;-83
2021/08/22 11:50:50;;;;;;;10.38;8.30;;;;;;;;;;5048768;28;20044;-83
2021/08/22 11:53:16;;;;;;;10.88;9.57;;;;;;;;;;5045087;28;20044;-83
2021/08/22 11:55:41;;;;;;;12.20;6.45;;;;;;;;;;5045716;28;20033;-83
2021/08/22 11:58:17;;;;;;;11.50;8.27;;;;;;;;;;4999337;28;20041;-83
2021/08/22 12:00:52;;;;;;;11.38;7.20;;;;;;;;;;5015131;28;20103;-83
2021/08/22 12:03:19;;;;;;;9.02;7.80;;;;;;;;;;5045998;28;20033;-82
2021/08/22 12:05:55;;;;;;;12.30;7.20;;;;;;;;;;5046765;28;20052;-83
2021/08/22 12:08:21;;;;;;;9.65;7.22;;;;;;;;;;5008063;28;20037;-83
2021/08/22 12:10:46;;;;;;;9.82;7.57;;;;;;;;;;5048661;28;20033;-82
2021/08/22 12:13:16;;;;;;;9.43;7.43;;;;;;;;;;5018088;28;20039;-81
2021/08/22 12:15:42;;;;;;;10.45;5.82;;;;;;;;;;5021061;28;20502;-82
2021/08/22 12:18:26;;;;;;;7.22;6.53;;;;;;;;;;5033286;28;20025;-82
2021/08/22 12:21:14;;;;;;;7.60;6.22;;;;;;;;;;5042094;28;20053;-82
2021/08/22 12:23:40;;;;;;;6.20;5.60;;;;;;;;;;5053677;28;20053;-82
2021/08/22 12:26:26;;;;;;;6.63;3.70;;;;;;;;;;5026293;28;20083;-82
2021/08/22 12:29:14;;;;;;;6.20;4.80;;;;;;;;;;5031598;28;20492;-84
2021/08/22 12:31:40;;;;;;;5.38;4.53;;;;;;;;;;5017607;28;20028;-85
2021/08/22 12:34:15;;;;;;;8.98;4.10;;;;;;;;;;5018742;28;20518;-90
2021/08/22 12:36:43;;;;;;;4.32;2.90;;;;;;;;;;5002987;28;20407;-89
2021/08/22 12:39:13;;;;;;;4.13;3.72;;;;;;;;;;5002402;28;20029;-90
2021/08/22 12:41:53;;;;;;;4.95;3.10;;;;;;;;;;5002174;28;20128;-88
2021/08/22 12:44:19;;;;;;;3.70;3.00;;;;;;;;;;5018312;28;20517;-86
2021/08/22 12:46:51;;;;;;;7.18;3.80;;;;;;;;;;5020526;28;20044;-85
2021/08/22 12:49:17;;;;;;;6.50;3.17;;;;;;;;;;5036733;28;20258;-84
2021/08/22 12:51:48;;;;;;;4.65;4.25;;;;;;;;;;5020445;28;20529;-82
2021/08/22 12:54:14;;;;;;;3.65;2.75;;;;;;;;;;5036444;28;20589;-80
2021/08/22 12:56:39;;;;;;;4.35;3.08;;;;;;;;;;5025558;28;20048;-79
2021/08/22 12:59:05;;;;;;;5.40;2.45;;;;;;;;;;5035851;28;20664;-81
2021/08/22 13:01:30;;;;;;;4.13;2.30;;;;;;;;;;5018103;28;20041;-84
2021/08/22 13:03:57;;;;;;;3.03;2.30;;;;;;;;;;5036759;28;20028;-85
2021/08/22 13:06:23;;;;;;;3.25;2.10;;;;;;;;;;5019079;28;20037;-84
2021/08/22 13:08:48;;;;;;;3.28;1.90;;;;;;;;;;5016361;28;20025;-83
2021/08/22 13:11:14;;;;;;;3.33;2.15;;;;;;;;;;5050753;28;20029;-85
2021/08/22 13:13:39;;;;;;;3.25;1.92;;;;;;;;;;5035682;28;20025;-84
2021/08/22 13:16:05;;;;;;;5.53;2.30;;;;;;;;;;5016268;28;20037;-84
2021/08/22 13:18:34;;;;;;;1.90;1.38;;;;;;;;;;5046761;28;20033;-85
2021/08/22 13:21:04;;;;;;;5.15;1.60;;;;;;;;;;5020675;28;20098;-84
2021/08/22 13:23:33;;;;;;;5.75;1.48;;;;;;;;;;5018805;28;20037;-84
2021/08/22 13:25:58;;;;;;;7.53;2.03;;;;;;;;;;5019532;28;20040;-84
2021/08/22 13:28:24;;;;;;;4.05;1.25;;;;;;;;;;5019829;28;20029;-84
2021/08/22 13:30:50;;;;;;;3.53;1.10;;;;;;;;;;5010519;28;20033;-84
2021/08/22 13:33:15;;;;;;;3.38;1.35;;;;;;;;;;4995774;28;20103;-83
2021/08/22 13:35:41;;;;;;;3.13;1.00;;;;;;;;;;4997689;28;20064;-83
2021/08/22 13:38:06;;;;;;;2.15;1.20;;;;;;;;;;5035918;28;20465;-85
2021/08/22 13:40:32;;;;;;;3.83;1.60;;;;;;;;;;5035877;28;20121;-84
2021/08/22 13:42:58;;;;;;;6.63;3.38;;;;;;;;;;5032426;28;20032;-82
2021/08/22 13:45:24;;;;;;;6.10;4.05;;;;;;;;;;5018765;28;20457;-83
2021/08/22 13:47:50;;;;;;;8.65;4.85;;;;;;;;;;5033186;28;20033;-84
2021/08/22 13:50:16;;;;;;;7.95;4.47;;;;;;;;;;5033193;28;20060;-84
2021/08/22 13:52:41;;;;;;;6.30;3.58;;;;;;;;;;5014895;28;20026;-84
2021/08/22 13:55:08;;;;;;;6.28;4.13;;;;;;;;;;5008842;28;20083;-83
2021/08/22 13:57:34;;;;;;;5.25;2.88;;;;;;;;;;5031236;28;20494;-84
2021/08/22 14:00:00;;;;;;;7.05;3.63;;;;;;;;;;5015649;28;20430;-84
2021/08/22 14:02:42;;;;;;;7.68;3.33;;;;;;;;;;5032168;28;20086;-84
2021/08/22 14:05:10;;;;;;;6.93;3.40;;;;;;;;;;5040220;28;20044;-84
2021/08/22 14:07:35;;;;;;;9.07;3.72;;;;;;;;;;5018124;28;20029;-84
2021/08/22 14:10:01;;;;;;;4.95;2.72;;;;;;;;;;5015441;28;20120;-84
2021/08/22 14:12:26;;;;;;;7.18;2.67;;;;;;;;;;5001256;28;20462;-84
2021/08/22 14:14:52;;;;;;;4.65;2.63;;;;;;;;;;5014284;28;20059;-83
2021/08/22 14:17:17;;;;;;;7.55;2.40;;;;;;;;;;5015982;28;20051;-84
2021/08/22 14:19:49;;;;;;;6.40;2.40;;;;;;;;;;5000690;28;20080;-83
2021/08/22 14:22:14;;;;;;;5.78;2.00;;;;;;;;;;5005461;28;20037;-84
2021/08/22 14:24:40;;;;;;;7.07;1.83;;;;;;;;;;5015770;28;20041;-84
2021/08/22 14:27:06;;;;;;;5.63;1.98;;;;;;;;;;5014662;28;20067;-84
2021/08/22 14:29:31;;;;;;;10.00;2.72;;;;;;;;;;5004628;28;20036;-83
2021/08/22 14:31:57;;;;;;;42.40;32.47;;;;;;;;;;4997024;28;20045;-83
2021/08/22 14:34:22;;;;;;;131.60;88.65;;;;;;;;;;5034757;28;20041;-83
2021/08/22 14:36:48;;;;;;;168.25;117.38;;;;;;;;;;4987664;28;20106;-84
2021/08/22 14:39:13;;;;;;;368.23;261.25;;;;;;;;;;5022453;28;20028;-83
2021/08/22 14:41:39;;;;;;;611.97;459.85;;;;;;;;;;5013257;28;20037;-84
2021/08/22 14:44:04;;;;;;;646.17;473.85;;;;;;;;;;5011080;28;20029;-84
2021/08/22 14:46:30;;;;;;;138.05;90.72;;;;;;;;;;5028523;28;20036;-85
2021/08/22 14:48:56;;;;;;;134.38;85.97;;;;;;;;;;5016179;28;20044;-85
2021/08/22 14:51:21;;;;;;;970.35;584.38;;;;;;;;;;5013278;28;20037;-84
2021/08/22 14:53:46;;;;;;;619.60;434.67;;;;;;;;;;5031105;28;20055;-84
2021/08/22 14:56:12;;;;;;;205.85;131.13;;;;;;;;;;4999359;28;20072;-83
2021/08/22 14:58:37;;;;;;;281.20;173.98;;;;;;;;;;5003734;28;20064;-84
2021/08/22 15:01:05;;;;;;;194.10;120.05;;;;;;;;;;5003608;28;20119;-86
2021/08/22 15:03:33;;;;;;;61.97;35.40;;;;;;;;;;5002160;28;20536;-85
2021/08/22 15:06:05;;;;;;;44.00;26.02;;;;;;;;;;5001749;28;20553;-85
2021/08/22 15:08:32;;;;;;;77.95;45.95;;;;;;;;;;5002054;28;20094;-86
2021/08/22 15:10:58;;;;;;;33.58;19.75;;;;;;;;;;5018405;28;20040;-84
2021/08/22 15:13:23;;;;;;;35.80;19.98;;;;;;;;;;5033649;28;20036;-84
2021/08/22 15:15:49;;;;;;;18.08;10.50;;;;;;;;;;5016742;28;20029;-85
2021/08/22 15:18:15;;;;;;;16.35;8.90;;;;;;;;;;5008856;28;20087;-85
2021/08/22 15:20:40;;;;;;;12.05;6.30;;;;;;;;;;5017340;28;20032;-84
2021/08/22 15:23:06;;;;;;;9.60;4.07;;;;;;;;;;5006433;28;20049;-85
2021/08/22 15:25:34;;;;;;;10.63;4.32;;;;;;;;;;5017062;28;20079;-85
2021/08/22 15:28:00;;;;;;;7.40;4.15;;;;;;;;;;5050207;28;20052;-85
2021/08/22 15:30:27;;;;;;;8.15;3.13;;;;;;;;;;5012819;28;20039;-84
2021/08/22 15:32:52;;;;;;;6.63;3.10;;;;;;;;;;4993425;28;20041;-84
2021/08/22 15:35:18;;;;;;;7.00;3.65;;;;;;;;;;5013992;28;20076;-83
2021/08/22 15:37:44;;;;;;;8.15;3.13;;;;;;;;;;5003914;28;20032;-83
2021/08/22 15:40:10;;;;;;;8.32;3.08;;;;;;;;;;5017230;28;20115;-84
2021/08/22 15:42:37;;;;;;;6.32;2.40;;;;;;;;;;5025528;28;20032;-84
2021/08/22 15:45:03;;;;;;;7.60;2.58;;;;;;;;;;5036010;28;20060;-84
2021/08/22 15:47:29;;;;;;;6.10;2.50;;;;;;;;;;5014000;28;20032;-84
2021/08/22 15:49:57;;;;;;;7.47;2.75;;;;;;;;;;4995354;28;20449;-84
2021/08/22 15:52:22;;;;;;;6.13;2.75;;;;;;;;;;5024805;28;20025;-85
2021/08/22 15:54:49;;;;;;;6.13;3.15;;;;;;;;;;5014164;28;20052;-84
2021/08/22 15:57:20;;;;;;;5.78;2.63;;;;;;;;;;5013551;28;20053;-85